createdAt,value
2023-05-04T00:00:10.502Z,12.30
2023-05-04T00:02:37.406Z,12.30
2023-05-04T00:05:06.122Z,12.20
2023-05-04T00:07:33.081Z,12.20
2023-05-04T00:10:01.185Z,12.20
2023-05-04T00:12:28.495Z,12.10
2023-05-04T00:14:55.524Z,12.10
2023-05-04T00:17:22.452Z,12.10
2023-05-04T00:19:49.298Z,12.00
2023-05-04T00:22:16.069Z,12.00
2023-05-04T00:24:44.157Z,12.00
2023-05-04T00:27:11.050Z,12.00
2023-05-04T00:29:37.869Z,11.90
2023-05-04T00:32:05.082Z,11.90
2023-05-04T00:34:34.177Z,11.90
2023-05-04T00:37:01.373Z,11.80
2023-05-04T00:39:28.230Z,11.80
2023-05-04T00:41:55.089Z,11.70
2023-05-04T00:44:23.906Z,11.70
2023-05-04T00:46:52.974Z,11.80
2023-05-04T00:49:21.641Z,11.70
2023-05-04T00:51:49.932Z,11.60
2023-05-04T00:54:20.396Z,11.60
2023-05-04T00:56:47.915Z,11.60
2023-05-04T00:59:14.918Z,11.60
2023-05-04T01:01:42.092Z,11.60
2023-05-04T01:04:09.212Z,11.60
2023-05-04T01:06:49.146Z,11.50
2023-05-04T01:09:43.325Z,11.50
2023-05-04T01:12:22.278Z,11.40
2023-05-04T01:14:51.147Z,11.40
2023-05-04T01:17:17.896Z,11.40
2023-05-04T01:19:44.729Z,11.40
2023-05-04T01:22:11.470Z,11.30
2023-05-04T01:24:38.582Z,11.40
2023-05-04T01:27:14.929Z,11.40
2023-05-04T01:29:54.560Z,11.30
2023-05-04T01:32:23.797Z,11.30
2023-05-04T01:37:17.753Z,11.20
2023-05-04T01:39:44.541Z,11.20
2023-05-04T01:42:11.287Z,11.20
2023-05-04T01:44:38.040Z,11.10
2023-05-04T01:47:04.950Z,11.20
2023-05-04T01:49:31.696Z,11.10
2023-05-04T01:51:59.339Z,11.10
2023-05-04T01:54:26.169Z,11.10
2023-05-04T01:56:52.920Z,11.10
2023-05-04T01:59:19.713Z,11.10
2023-05-04T02:01:46.468Z,10.10
2023-05-04T02:04:13.312Z,11.10
2023-05-04T02:06:40.527Z,11.10
2023-05-04T02:09:07.423Z,11.00
2023-05-04T02:11:34.180Z,11.00
2023-05-04T02:14:00.966Z,11.00
2023-05-04T02:16:27.771Z,11.00
2023-05-04T02:18:54.556Z,11.00
2023-05-04T02:21:21.901Z,11.10
2023-05-04T02:23:48.761Z,11.00
2023-05-04T02:26:15.564Z,11.00
2023-05-04T02:28:42.376Z,11.00
2023-05-04T02:33:36.451Z,11.00
2023-05-04T02:36:03.311Z,11.00
2023-05-04T02:38:30.269Z,11.00
2023-05-04T02:40:58.340Z,10.70
2023-05-04T02:43:25.337Z,10.90
2023-05-04T02:45:52.260Z,10.90
2023-05-04T02:48:19.071Z,10.80
2023-05-04T02:50:46.453Z,10.90
2023-05-04T02:53:13.249Z,10.40
2023-05-04T02:55:40.036Z,10.90
2023-05-04T02:58:07.174Z,10.80
2023-05-04T03:00:34.066Z,10.80
2023-05-04T03:03:01.225Z,10.80
2023-05-04T03:05:28.201Z,10.80
2023-05-04T03:07:54.949Z,10.70
2023-05-04T03:10:21.927Z,10.80
2023-05-04T03:12:48.816Z,10.80
2023-05-04T03:15:15.776Z,10.70
2023-05-04T03:17:43.427Z,10.70
2023-05-04T03:20:12.708Z,10.70
2023-05-04T03:22:39.470Z,10.70
2023-05-04T03:25:07.084Z,10.70
2023-05-04T03:27:33.807Z,10.70
2023-05-04T03:30:00.554Z,10.70
2023-05-04T03:32:27.311Z,10.60
2023-05-04T03:34:54.073Z,10.60
2023-05-04T03:37:20.842Z,10.60
2023-05-04T03:39:47.585Z,10.60
2023-05-04T03:42:14.309Z,10.60
2023-05-04T03:44:41.216Z,10.60
2023-05-04T03:47:07.950Z,10.60
2023-05-04T03:49:35.427Z,10.60
2023-05-04T03:52:02.190Z,10.60
2023-05-04T03:54:28.968Z,10.60
2023-05-04T03:56:55.775Z,10.60
2023-05-04T03:59:22.550Z,10.60
2023-05-04T04:01:49.322Z,10.60
2023-05-04T04:04:16.118Z,10.60
2023-05-04T04:06:43.526Z,10.50
2023-05-04T04:09:10.384Z,10.60
2023-05-04T04:11:37.189Z,10.60
2023-05-04T04:14:03.937Z,10.70
2023-05-04T04:16:30.837Z,10.60
2023-05-04T04:18:58.215Z,10.60
2023-05-04T04:23:52.213Z,10.60
2023-05-04T04:26:20.341Z,10.70
2023-05-04T04:28:50.588Z,10.70
2023-05-04T04:31:21.452Z,10.70
2023-05-04T04:33:51.308Z,10.70
2023-05-04T04:36:18.810Z,10.70
2023-05-04T04:38:46.397Z,10.70
2023-05-04T04:41:13.529Z,10.70
2023-05-04T04:43:40.553Z,10.70
2023-05-04T04:46:08.273Z,10.70
2023-05-04T04:48:35.816Z,10.70
2023-05-04T04:51:02.587Z,10.80
2023-05-04T04:53:29.308Z,10.60
2023-05-04T04:55:56.053Z,10.80
2023-05-04T04:58:22.798Z,10.90
2023-05-04T05:00:52.069Z,10.90
2023-05-04T05:03:18.958Z,10.90
2023-05-04T05:08:12.997Z,11.00
2023-05-04T05:10:41.364Z,11.10
2023-05-04T05:13:09.405Z,11.10
2023-05-04T05:15:36.287Z,11.20
2023-05-04T05:18:03.143Z,11.20
2023-05-04T05:20:29.971Z,11.20
2023-05-04T05:22:56.748Z,11.30
2023-05-04T05:25:23.549Z,11.40
2023-05-04T05:27:50.297Z,11.50
2023-05-04T05:30:17.068Z,11.50
2023-05-04T05:32:43.957Z,11.70
2023-05-04T05:35:10.939Z,11.90
2023-05-04T05:37:37.813Z,12.10
2023-05-04T05:40:07.975Z,12.30
2023-05-04T05:42:34.897Z,12.60
2023-05-04T05:45:03.638Z,12.40
2023-05-04T05:47:31.133Z,12.70
2023-05-04T05:49:57.930Z,12.90
2023-05-04T05:52:24.691Z,13.10
2023-05-04T05:54:52.670Z,13.20
2023-05-04T05:57:20.683Z,13.30
2023-05-04T05:59:47.921Z,13.50
2023-05-04T06:02:15.336Z,13.60
2023-05-04T06:04:42.915Z,13.70
2023-05-04T06:07:09.695Z,13.80
2023-05-04T06:09:36.915Z,13.90
2023-05-04T06:12:04.945Z,14.00
2023-05-04T06:14:31.762Z,14.20
2023-05-04T06:16:58.716Z,14.20
2023-05-04T06:19:26.699Z,14.30
2023-05-04T06:21:53.580Z,14.40
2023-05-04T06:26:48.520Z,14.60
2023-05-04T06:29:15.383Z,14.60
2023-05-04T06:31:42.268Z,14.70
2023-05-04T06:34:09.088Z,14.80
2023-05-04T06:36:36.345Z,14.90
2023-05-04T06:39:03.803Z,14.90
2023-05-04T06:41:37.064Z,15.00
2023-05-04T06:44:05.345Z,14.70
2023-05-04T06:46:37.098Z,15.10
2023-05-04T06:49:04.480Z,15.20
2023-05-04T06:51:32.205Z,15.30
2023-05-04T06:54:01.019Z,15.30
2023-05-04T06:56:27.770Z,15.30
2023-05-04T06:58:55.010Z,15.40
2023-05-04T07:01:21.887Z,15.40
2023-05-04T07:03:48.869Z,15.50
2023-05-04T07:06:15.820Z,15.50
2023-05-04T07:08:42.844Z,15.60
2023-05-04T07:11:10.356Z,15.60
2023-05-04T07:13:38.589Z,15.60
2023-05-04T07:16:09.024Z,15.70
2023-05-04T07:18:36.314Z,15.70
2023-05-04T07:21:21.815Z,15.80
2023-05-04T07:23:51.768Z,15.80
2023-05-04T07:26:18.865Z,15.90
2023-05-04T07:28:45.623Z,16.00
2023-05-04T07:31:13.057Z,16.00
2023-05-04T07:33:40.822Z,16.00
2023-05-04T07:36:07.953Z,16.10
2023-05-04T07:38:34.916Z,17.60
2023-05-04T07:41:01.736Z,16.30
2023-05-04T07:43:28.454Z,16.40
2023-05-04T07:45:55.253Z,16.50
2023-05-04T07:48:23.376Z,16.60
2023-05-04T07:50:51.419Z,16.70
2023-05-04T07:53:20.593Z,16.80
2023-05-04T07:58:16.622Z,16.90
2023-05-04T08:00:43.493Z,16.90
2023-05-04T08:03:10.447Z,17.00
2023-05-04T08:05:37.360Z,17.10
2023-05-04T08:08:04.141Z,17.20
2023-05-04T08:10:30.957Z,17.20
2023-05-04T08:12:57.929Z,17.30
2023-05-04T08:15:24.714Z,17.40
2023-05-04T08:17:51.669Z,17.40
2023-05-04T08:20:18.602Z,17.50
2023-05-04T08:22:45.706Z,17.60
2023-05-04T08:27:39.817Z,17.70
2023-05-04T08:30:07.517Z,17.80
2023-05-04T08:32:34.323Z,17.80
2023-05-04T08:35:01.104Z,17.80
2023-05-04T08:37:27.831Z,18.00
2023-05-04T08:39:54.715Z,18.00
2023-05-04T08:42:29.593Z,18.10
2023-05-04T08:44:58.319Z,18.20
2023-05-04T08:47:27.188Z,18.20
2023-05-04T08:49:58.846Z,18.30
2023-05-04T08:52:26.483Z,18.30
2023-05-04T08:54:56.874Z,18.40
2023-05-04T08:57:25.333Z,18.50
2023-05-04T08:59:54.505Z,18.40
2023-05-04T09:02:23.330Z,18.50
2023-05-04T09:04:52.346Z,18.50
2023-05-04T09:07:21.118Z,18.60
2023-05-04T09:09:50.878Z,18.60
2023-05-04T09:12:19.193Z,18.70
2023-05-04T09:14:46.677Z,18.70
2023-05-04T09:17:29.260Z,18.80
2023-05-04T09:20:01.958Z,18.80
2023-05-04T09:22:30.529Z,18.90
2023-05-04T09:25:13.600Z,20.30
2023-05-04T09:27:42.691Z,19.00
2023-05-04T09:30:12.520Z,19.00
2023-05-04T09:32:46.746Z,19.00
2023-05-04T09:35:25.643Z,19.10
2023-05-04T09:37:59.184Z,19.20
2023-05-04T09:40:41.120Z,19.20
2023-05-04T09:43:10.723Z,19.30
2023-05-04T09:45:42.939Z,19.30
2023-05-04T09:48:38.906Z,19.30
2023-05-04T09:51:07.264Z,19.40
2023-05-04T09:53:38.274Z,19.40
2023-05-04T09:56:20.235Z,19.60
2023-05-04T09:58:49.203Z,19.60
2023-05-04T10:01:16.810Z,19.70
2023-05-04T10:03:44.129Z,19.60
2023-05-04T10:06:12.073Z,19.80
2023-05-04T10:08:41.085Z,19.80
2023-05-04T10:11:08.622Z,19.90
2023-05-04T10:13:35.471Z,19.90
2023-05-04T10:16:34.822Z,20.00
2023-05-04T10:19:16.703Z,20.10
2023-05-04T10:21:58.799Z,20.20
2023-05-04T10:25:12.385Z,20.30
2023-05-04T10:27:55.620Z,20.40
2023-05-04T10:30:23.831Z,20.40
2023-05-04T10:32:58.678Z,20.50
2023-05-04T10:35:26.949Z,20.50
2023-05-04T10:37:56.059Z,20.50
2023-05-04T10:40:39.654Z,21.10
2023-05-04T10:43:08.480Z,20.60
2023-05-04T10:45:39.918Z,20.60
2023-05-04T10:48:08.618Z,20.70
2023-05-04T10:50:46.176Z,20.80
2023-05-04T10:53:18.598Z,20.80
2023-05-04T10:55:47.720Z,20.90
2023-05-04T10:58:20.170Z,20.90
2023-05-04T11:00:51.488Z,21.00
2023-05-04T11:03:19.277Z,21.00
2023-05-04T11:05:55.741Z,21.00
2023-05-04T11:08:25.553Z,20.90
2023-05-04T11:11:07.351Z,21.10
2023-05-04T11:13:40.656Z,21.00
2023-05-04T11:16:07.692Z,21.10
2023-05-04T11:18:37.272Z,21.10
2023-05-04T11:21:04.354Z,21.10
2023-05-04T11:23:31.584Z,21.10
2023-05-04T11:25:58.349Z,21.10
2023-05-04T11:28:38.642Z,21.10
2023-05-04T11:31:17.061Z,21.10
2023-05-04T11:33:54.929Z,21.20
2023-05-04T11:36:22.615Z,21.30
2023-05-04T11:38:50.896Z,21.30
2023-05-04T11:41:17.848Z,21.30
2023-05-04T11:43:46.694Z,21.50
2023-05-04T11:46:16.482Z,21.50
2023-05-04T11:48:43.793Z,21.70
2023-05-04T11:51:11.318Z,21.70
2023-05-04T11:53:39.955Z,21.90
2023-05-04T11:56:09.057Z,21.80
2023-05-04T11:58:36.919Z,21.90
2023-05-04T12:01:04.303Z,22.00
2023-05-04T12:03:48.026Z,22.10
2023-05-04T12:06:18.644Z,22.10
2023-05-04T12:08:45.571Z,22.20
2023-05-04T12:11:25.099Z,22.20
2023-05-04T12:14:13.746Z,22.30
2023-05-04T12:16:42.821Z,22.50
2023-05-04T12:19:12.755Z,22.50
2023-05-04T12:21:54.277Z,22.60
2023-05-04T12:24:27.910Z,22.60
2023-05-04T12:26:54.756Z,22.70
2023-05-04T12:29:21.551Z,22.70
2023-05-04T12:31:48.344Z,22.80
2023-05-04T12:34:15.173Z,22.80
2023-05-04T12:36:41.930Z,22.90
2023-05-04T12:39:08.797Z,22.90
2023-05-04T12:41:35.669Z,23.00
2023-05-04T12:44:02.860Z,23.00
2023-05-04T12:46:29.862Z,23.10
2023-05-04T12:48:57.276Z,23.10
2023-05-04T12:51:24.058Z,23.10
2023-05-04T12:53:50.930Z,23.90
2023-05-04T12:58:44.978Z,23.40
2023-05-04T13:01:11.746Z,23.30
2023-05-04T13:03:38.628Z,23.40
2023-05-04T13:06:05.977Z,23.40
2023-05-04T13:08:33.594Z,23.40
2023-05-04T13:11:00.506Z,23.40
2023-05-04T13:15:57.204Z,23.40
2023-05-04T13:18:27.246Z,23.40
2023-05-04T13:20:56.133Z,23.40
2023-05-04T13:23:23.689Z,25.30
2023-05-04T13:25:51.474Z,23.40
2023-05-04T13:28:18.976Z,23.40
2023-05-04T13:30:45.743Z,23.40
2023-05-04T13:33:25.048Z,23.50
2023-05-04T13:35:56.902Z,23.50
2023-05-04T13:38:23.708Z,23.60
2023-05-04T13:40:50.661Z,23.60
2023-05-04T13:43:17.394Z,23.70
2023-05-04T13:45:44.143Z,23.70
2023-05-04T13:48:10.919Z,23.60
2023-05-04T13:50:37.732Z,23.70
2023-05-04T13:53:04.530Z,23.80
2023-05-04T13:55:31.417Z,23.70
2023-05-04T13:57:58.217Z,23.70
2023-05-04T14:00:25.056Z,23.60
2023-05-04T14:02:52.231Z,23.60
2023-05-04T14:05:19.256Z,23.70
2023-05-04T14:07:46.085Z,23.60
2023-05-04T14:10:13.100Z,23.60
2023-05-04T14:15:08.220Z,23.60
2023-05-04T14:17:35.090Z,23.60
2023-05-04T14:20:01.928Z,23.70
2023-05-04T14:22:28.704Z,23.80
2023-05-04T14:24:55.542Z,23.70
2023-05-04T14:27:22.684Z,23.70
2023-05-04T14:29:49.504Z,23.70
2023-05-04T14:32:16.300Z,23.70
2023-05-04T14:37:10.323Z,23.70
2023-05-04T14:39:37.106Z,23.60
2023-05-04T14:42:03.927Z,23.60
2023-05-04T14:44:30.925Z,23.60
2023-05-04T14:46:57.756Z,23.60
2023-05-04T14:49:35.561Z,23.60
2023-05-04T14:52:03.981Z,23.60
2023-05-04T14:54:30.818Z,23.70
2023-05-04T14:56:58.919Z,23.70
2023-05-04T14:59:26.210Z,23.60
2023-05-04T15:01:54.880Z,23.60
2023-05-04T15:04:22.069Z,23.60
2023-05-04T15:06:49.496Z,23.70
2023-05-04T15:09:16.501Z,23.70
2023-05-04T15:11:43.387Z,23.80
2023-05-04T15:14:10.179Z,23.80
2023-05-04T15:16:37.114Z,23.80
2023-05-04T15:19:03.962Z,23.90
2023-05-04T15:21:31.578Z,23.90
2023-05-04T15:23:58.644Z,24.00
2023-05-04T15:26:25.747Z,24.00
2023-05-04T15:28:53.978Z,24.10
2023-05-04T15:31:21.625Z,24.10
2023-05-04T15:33:51.334Z,24.10
2023-05-04T15:36:18.670Z,24.10
2023-05-04T15:38:45.486Z,24.00
2023-05-04T15:41:14.116Z,24.10
2023-05-04T15:43:41.056Z,24.00
2023-05-04T15:46:07.865Z,24.10
2023-05-04T15:48:34.624Z,24.00
2023-05-04T15:51:01.438Z,24.10
2023-05-04T15:53:28.211Z,24.10
2023-05-04T15:55:54.954Z,24.10
2023-05-04T15:58:21.729Z,24.00
2023-05-04T16:00:48.528Z,24.10
2023-05-04T16:05:43.807Z,24.00
2023-05-04T16:10:38.266Z,23.90
2023-05-04T16:13:05.403Z,23.90
2023-05-04T16:15:32.337Z,23.90
2023-05-04T16:17:59.406Z,24.00
2023-05-04T16:20:28.470Z,23.80
2023-05-04T16:22:55.324Z,23.80
2023-05-04T16:25:22.161Z,23.80
2023-05-04T16:27:48.989Z,23.80
2023-05-04T16:30:15.945Z,23.80
2023-05-04T16:32:42.762Z,23.80
2023-05-04T16:35:09.813Z,23.80
2023-05-04T16:37:38.437Z,23.80
2023-05-04T16:40:16.309Z,23.80
2023-05-04T16:42:43.724Z,23.80
2023-05-04T16:45:13.373Z,23.70
2023-05-04T16:47:42.008Z,23.70
2023-05-04T16:50:13.415Z,23.70
2023-05-04T16:52:40.537Z,23.70
2023-05-04T16:55:11.831Z,23.60
2023-05-04T16:57:39.512Z,23.60
2023-05-04T17:00:07.853Z,23.60
2023-05-04T17:02:35.947Z,23.50
2023-05-04T17:05:06.468Z,23.50
2023-05-04T17:07:34.014Z,23.50
2023-05-04T17:10:00.799Z,23.40
2023-05-04T17:12:28.817Z,23.40
2023-05-04T17:14:55.890Z,23.30
2023-05-04T17:17:22.845Z,23.20
2023-05-04T17:19:49.748Z,23.20
2023-05-04T17:22:17.357Z,23.10
2023-05-04T17:24:45.694Z,23.10
2023-05-04T17:27:13.131Z,23.00
2023-05-04T17:29:41.021Z,23.00
2023-05-04T17:32:08.272Z,22.90
2023-05-04T17:34:35.950Z,22.90
2023-05-04T17:37:02.674Z,22.80
2023-05-04T17:39:31.429Z,22.70
2023-05-04T17:41:58.849Z,22.70
2023-05-04T17:44:26.096Z,22.70
2023-05-04T17:46:52.995Z,22.60
2023-05-04T17:49:19.786Z,22.70
2023-05-04T17:51:49.073Z,22.60
2023-05-04T17:54:16.859Z,21.70
2023-05-04T17:56:43.783Z,22.40
2023-05-04T17:59:10.529Z,22.40
2023-05-04T18:01:37.327Z,22.30
2023-05-04T18:04:04.361Z,22.30
2023-05-04T18:06:32.971Z,22.20
2023-05-04T18:09:00.987Z,22.20
2023-05-04T18:11:27.834Z,22.20
2023-05-04T18:13:56.334Z,22.10
2023-05-04T18:16:24.821Z,22.00
2023-05-04T18:18:52.326Z,22.00
2023-05-04T18:21:19.222Z,21.90
2023-05-04T18:23:46.725Z,21.90
2023-05-04T18:26:22.530Z,21.80
2023-05-04T18:28:50.174Z,21.70
2023-05-04T18:31:17.369Z,21.60
2023-05-04T18:33:44.219Z,21.50
2023-05-04T18:36:11.109Z,19.70
2023-05-04T18:38:37.899Z,21.40
2023-05-04T18:41:05.344Z,21.30
2023-05-04T18:43:32.139Z,21.30
2023-05-04T18:46:06.395Z,21.60
2023-05-04T18:48:33.479Z,20.90
2023-05-04T18:51:03.362Z,20.90
2023-05-04T18:53:32.703Z,20.90
2023-05-04T18:56:08.143Z,20.80
2023-05-04T18:58:38.945Z,20.70
2023-05-04T19:01:06.247Z,20.70
2023-05-04T19:03:33.729Z,20.60
2023-05-04T19:06:00.619Z,20.50
2023-05-04T19:08:27.467Z,20.50
2023-05-04T19:10:59.220Z,20.40
2023-05-04T19:13:26.149Z,20.40
2023-05-04T19:18:20.451Z,20.30
2023-05-04T19:20:47.213Z,20.20
2023-05-04T19:23:14.134Z,20.20
2023-05-04T19:25:40.986Z,20.10
2023-05-04T19:28:10.718Z,20.10
2023-05-04T19:30:39.224Z,20.20
2023-05-04T19:33:08.329Z,20.00
2023-05-04T19:35:35.672Z,20.00
2023-05-04T19:38:02.647Z,20.00
2023-05-04T19:40:29.482Z,20.00
2023-05-04T19:42:56.354Z,19.90
2023-05-04T19:45:24.060Z,20.00
2023-05-04T19:47:52.346Z,19.90
2023-05-04T19:50:19.766Z,19.90
2023-05-04T19:52:46.491Z,19.80
2023-05-04T19:55:13.374Z,19.80
2023-05-04T19:57:40.219Z,19.80
2023-05-04T20:00:09.706Z,19.80
2023-05-04T20:02:38.219Z,19.70
2023-05-04T20:05:08.213Z,19.70
2023-05-04T20:07:35.139Z,19.70
2023-05-04T20:10:01.888Z,19.70
2023-05-04T20:12:28.821Z,19.60
2023-05-04T20:14:55.993Z,19.60
2023-05-04T20:17:23.366Z,19.60
2023-05-04T20:19:50.239Z,19.60
2023-05-04T20:22:17.071Z,19.50
2023-05-04T20:24:43.910Z,19.50
2023-05-04T20:27:10.771Z,19.40
2023-05-04T20:29:37.504Z,19.40
2023-05-04T20:32:05.322Z,19.30
2023-05-04T20:34:32.216Z,19.30
2023-05-04T20:36:59.064Z,19.20
2023-05-04T20:39:25.834Z,19.20
2023-05-04T20:41:52.988Z,23.20
2023-05-04T20:44:19.819Z,19.10
2023-05-04T20:46:46.734Z,19.10
2023-05-04T20:49:13.781Z,19.00
2023-05-04T20:51:40.601Z,19.00
2023-05-04T20:54:07.439Z,18.90
2023-05-04T20:56:34.184Z,18.80
2023-05-04T20:59:01.008Z,18.80
2023-05-04T21:01:29.592Z,18.80
2023-05-04T21:03:56.719Z,18.70
2023-05-04T21:06:24.381Z,18.60
2023-05-04T21:08:51.180Z,18.50
2023-05-04T21:11:17.929Z,18.50
2023-05-04T21:13:46.957Z,18.40
2023-05-04T21:16:13.930Z,18.40
2023-05-04T21:18:42.744Z,18.30
2023-05-04T21:21:09.490Z,18.20
2023-05-04T21:23:36.241Z,18.20
2023-05-04T21:26:04.364Z,18.20
2023-05-04T21:28:32.319Z,18.00
2023-05-04T21:30:59.583Z,18.00
2023-05-04T21:33:26.568Z,17.90
2023-05-04T21:35:53.375Z,17.90
2023-05-04T21:38:22.042Z,17.80
2023-05-04T21:40:49.290Z,17.80
2023-05-04T21:43:16.124Z,17.70
2023-05-04T21:45:42.958Z,17.70
2023-05-04T21:48:09.788Z,17.70
2023-05-04T21:50:36.593Z,17.60
2023-05-04T21:53:03.379Z,17.50
2023-05-04T21:55:30.416Z,17.40
2023-05-04T21:57:57.351Z,17.40
2023-05-04T22:00:24.371Z,17.40
2023-05-04T22:02:54.942Z,17.30
2023-05-04T22:05:22.473Z,17.30
2023-05-04T22:07:50.200Z,17.20
2023-05-04T22:10:17.777Z,17.10
2023-05-04T22:12:44.558Z,17.10
2023-05-04T22:15:11.682Z,17.10
2023-05-04T22:17:38.902Z,17.00
2023-05-04T22:20:06.805Z,17.00
2023-05-04T22:22:33.794Z,16.90
2023-05-04T22:25:00.542Z,16.90
2023-05-04T22:27:27.414Z,16.80
2023-05-04T22:29:54.142Z,16.70
2023-05-04T22:32:20.910Z,16.70
2023-05-04T22:34:47.680Z,15.10
2023-05-04T22:37:14.422Z,16.50
2023-05-04T22:39:41.285Z,16.50
2023-05-04T22:42:08.026Z,16.40
2023-05-04T22:44:34.823Z,16.40
2023-05-04T22:47:01.768Z,16.30
2023-05-04T22:49:28.489Z,16.20
2023-05-04T22:51:55.249Z,16.20
2023-05-04T22:54:22.124Z,16.20
2023-05-04T22:56:48.853Z,16.10
2023-05-04T22:59:15.601Z,16.10
2023-05-04T23:01:43.458Z,16.00
2023-05-04T23:04:11.474Z,16.00
2023-05-04T23:06:38.664Z,15.90
2023-05-04T23:09:05.492Z,15.90
2023-05-04T23:11:32.464Z,15.80
2023-05-04T23:13:59.409Z,15.80
2023-05-04T23:16:26.203Z,15.70
2023-05-04T23:18:52.928Z,15.70
2023-05-04T23:21:19.770Z,15.60
2023-05-04T23:23:46.707Z,15.50
2023-05-04T23:26:13.455Z,15.50
2023-05-04T23:28:40.320Z,15.50
2023-05-04T23:31:07.091Z,15.50
2023-05-04T23:33:33.838Z,15.40
2023-05-04T23:36:00.716Z,15.40
2023-05-04T23:40:54.851Z,15.30
2023-05-04T23:43:23.601Z,15.30
2023-05-04T23:46:01.993Z,15.20
2023-05-04T23:48:30.365Z,15.20
2023-05-04T23:50:58.440Z,15.20
2023-05-04T23:53:28.295Z,15.10
2023-05-04T23:56:04.061Z,15.00
2023-05-04T23:58:33.419Z,15.10
